Wormley Airport

Jump to: basic info | weather | runways | comments

Related pages: nearby airports | nearby navaids | notams | map

Basic information (top)

Codes: 85LL
Location: lon 41.683899, lat -88.262299, elev 680 ft / 207 m msl
Status: small_airport

Weather (top)

Current conditions for Lewis University Airport 9nm (16km) ESE (rec'd 2015/04/20 00:15Z):

KLOT 200015Z AUTO 06013KT 3SM -RA OVC007 12/11 A2940

Airport forecast for Dupage Airport 13nm (25km) N (rec'd 2015/04/19 00:24Z):

TAF KDPA 192322Z 2000/2024 07009KT 4SM -RA SCT008 OVC020 
     FM200100 05009KT 4SM -RA OVC008 
     FM200500 33006KT 2SM BR VCSH OVC006 
     FM201200 28012KT 6SM -SHRA BR OVC008 
     FM201500 29017G26KT 6SM -SHRA OVC015 
     FM201700 28012G20KT P6SM VCSH BKN020 
     FM201900 27020G30KT P6SM BKN035

Runways (top)

N/S: 2,300 x 100 ft (701 x 30 m) — grass — not lighted

Latest comments (top)

No comments yet for Wormley Airport

More... (top)

See also NOTAMs and nearby airports and navaids, or visit the Wormley Airport page at the main OurAirports website..